CheckWX is a tool to help pilots better visualize weather data.  It is not intended as a substitute for an official pre-flight weather briefing.

20:36:24 UTC

WABB METAR
Frans Kaisiepo Airport
Biak-Supiori Island, Indonesia
Current

4 hours ago

WABB 181700Z 00000KT 9999 FEW018 OVC100 26/25 Q1010 NOSIG
Observed
Apr-18 @ 17:00 UTC
Visibility
10,000+ meters
Flight Rules
VFR
Cloud Levels
  • Few at 1,800' AGL
  • Overcast at 10,000' AGL
Temperature
26°C / 79°F
Dewpoint
25°C / 77°F
Humidity
94%
Altimeter
29.82" Hg
Pressure
1009.92 hPa
Previous

5 hours ago

WABB 181530Z 31002KT 9999 FEW018 OVC100 26/25 Q1011 NOSIG
Observed
Apr-18 @ 15:30 UTC
Wind
  • 310° at 2 KTS
Visibility
10,000+ meters
Flight Rules
VFR
Cloud Levels
  • Few at 1,800' AGL
  • Overcast at 10,000' AGL
Temperature
26°C / 79°F
Dewpoint
25°C / 77°F
Humidity
94%
Altimeter
29.85" Hg
Pressure
1010.92 hPa
Previous

6 hours ago

WABB 181430Z 01002KT 9999 FEW018 BKN100 26/25 Q1011 NOSIG
Observed
Apr-18 @ 14:30 UTC
Wind
  • 010° at 2 KTS
Visibility
10,000+ meters
Flight Rules
VFR
Cloud Levels
  • Few at 1,800' AGL
  • Broken at 10,000' AGL
Temperature
26°C / 79°F
Dewpoint
25°C / 77°F
Humidity
94%
Altimeter
29.85" Hg
Pressure
1010.92 hPa